Time;durP1;ratioP1;P1;durP2;ratioP2;P2;SDS_P1;SDS_P2;PMS_P1;PMS_P2;Temp;Humidity;BMP_temperature;BMP_pressure;BME280_temperature;BME280_humidity;BME280_pressure;Samples;Min_cycle;Max_cycle;Signal;HPM_P1;HPM_P2
2023/04/22 00:00:27;;;;;;;0.15;0.15;;;;;;;18.01;57.83;100983.00;5069687;28;20036;-66
2023/04/22 00:02:54;;;;;;;0.20;0.20;;;;;;;17.87;57.86;100981.06;5069870;28;20045;-67
2023/04/22 00:05:20;;;;;;;0.10;0.10;;;;;;;18.53;55.31;100984.66;5069699;28;20045;-66
2023/04/22 00:07:46;;;;;;;0.28;0.28;;;;;;;17.80;58.68;100986.78;5062395;28;20025;-67
2023/04/22 00:10:11;;;;;;;0.20;0.20;;;;;;;17.84;58.46;100978.91;5069776;28;20017;-67
2023/04/22 00:12:37;;;;;;;0.10;0.10;;;;;;;17.93;57.68;100975.38;5070096;28;20033;-66
2023/04/22 00:15:02;;;;;;;0.20;0.20;;;;;;;17.79;58.59;100982.41;5071380;28;20094;-67
2023/04/22 00:17:28;;;;;;;0.08;0.08;;;;;;;17.93;57.71;100975.38;5070282;28;20115;-66
2023/04/22 00:19:55;;;;;;;0.20;0.20;;;;;;;17.61;58.42;100971.25;5069966;28;20499;-64
2023/04/22 00:22:20;;;;;;;0.10;0.10;;;;;;;17.38;59.47;100969.78;5070488;28;20178;-67
2023/04/22 00:24:45;;;;;;;0.17;0.17;;;;;;;17.68;58.81;100963.66;5070125;28;20123;-65
2023/04/22 00:27:11;;;;;;;0.20;0.20;;;;;;;18.03;57.57;100956.34;5069839;28;20059;-66
2023/04/22 00:29:36;;;;;;;0.10;0.10;;;;;;;17.87;58.62;100943.00;5069778;28;20035;-67
2023/04/22 00:32:01;;;;;;;0.10;0.10;;;;;;;17.81;57.68;100952.28;5052082;28;20492;-65
2023/04/22 00:34:27;;;;;;;0.20;0.20;;;;;;;17.47;59.55;100947.25;5070619;28;20028;-66
2023/04/22 00:36:52;;;;;;;0.10;0.10;;;;;;;17.66;58.83;100944.91;5069332;28;20454;-67
2023/04/22 00:39:18;;;;;;;0.10;0.10;;;;;;;17.60;59.04;100948.69;5052001;28;20035;-65
2023/04/22 00:41:43;;;;;;;0.17;0.17;;;;;;;17.72;58.53;100938.38;5069969;28;20032;-66
2023/04/22 00:44:10;;;;;;;0.15;0.15;;;;;;;17.32;59.53;100944.50;5070063;28;20029;-65
2023/04/22 00:46:39;;;;;;;0.10;0.10;;;;;;;16.94;60.76;100941.38;5070286;28;20121;-65
2023/04/22 00:49:06;;;;;;;0.10;0.10;;;;;;;17.18;60.67;100940.66;5069931;28;20537;-65
2023/04/22 00:51:32;;;;;;;0.20;0.20;;;;;;;16.96;61.11;100941.94;5069550;28;20029;-67
2023/04/22 00:53:58;;;;;;;0.20;0.20;;;;;;;16.86;61.18;100939.16;5070022;28;20036;-66
2023/04/22 00:56:27;;;;;;;0.20;0.20;;;;;;;16.98;60.97;100945.19;5069482;28;20036;-67
2023/04/22 00:58:53;;;;;;;0.10;0.10;;;;;;;17.16;60.01;100936.59;5073131;28;20090;-65
2023/04/22 01:01:20;;;;;;;0.20;0.20;;;;;;;17.03;60.55;100937.06;5074184;28;20047;-65
2023/04/22 01:03:47;;;;;;;0.20;0.20;;;;;;;16.49;62.74;100941.94;5073542;28;20049;-66
2023/04/22 01:06:12;;;;;;;0.30;0.30;;;;;;;16.33;62.67;100935.53;5073838;28;20033;-67
2023/04/22 01:08:39;;;;;;;0.15;0.15;;;;;;;16.91;60.94;100944.59;5073819;28;20350;-65
2023/04/22 01:11:05;;;;;;;0.10;0.10;;;;;;;16.91;60.92;100939.16;5073908;28;20492;-66
2023/04/22 01:13:31;;;;;;;0.20;0.20;;;;;;;16.92;61.40;100948.97;5075838;28;20036;-67
2023/04/22 01:15:57;;;;;;;0.30;0.30;;;;;;;17.15;59.98;100935.75;5073985;28;20120;-66
2023/04/22 01:18:22;;;;;;;0.30;0.30;;;;;;;17.39;59.00;100944.25;5073533;28;20245;-65
2023/04/22 01:20:48;;;;;;;0.13;0.13;;;;;;;17.62;58.36;100941.09;5073311;28;20036;-65
2023/04/22 01:23:18;;;;;;;0.20;0.20;;;;;;;17.53;58.61;100946.22;5054127;28;20040;-66
2023/04/22 01:25:45;;;;;;;0.20;0.20;;;;;;;16.80;60.39;100937.50;5073676;28;20032;-67
2023/04/22 01:28:11;;;;;;;0.28;0.28;;;;;;;16.86;60.49;100928.31;5073678;28;20031;-67
2023/04/22 01:30:37;;;;;;;0.20;0.20;;;;;;;16.91;59.40;100931.03;5073497;28;20033;-67
2023/04/22 01:33:03;;;;;;;0.30;0.30;;;;;;;17.04;59.87;100927.84;5073168;28;20055;-66
2023/04/22 01:35:29;;;;;;;0.20;0.20;;;;;;;17.26;58.30;100934.69;5072829;28;20058;-65
2023/04/22 01:37:56;;;;;;;0.10;0.10;;;;;;;16.95;58.93;100929.41;5073112;28;20093;-65
2023/04/22 01:40:22;;;;;;;0.20;0.20;;;;;;;16.86;59.89;100931.84;5073519;28;20078;-66
2023/04/22 01:42:47;;;;;;;0.20;0.20;;;;;;;17.04;58.78;100925.91;5072781;28;20052;-67
2023/04/22 01:45:16;;;;;;;0.20;0.20;;;;;;;17.11;58.70;100922.97;5072849;28;20029;-66
2023/04/22 01:47:41;;;;;;;0.20;0.20;;;;;;;16.56;60.36;100927.06;5073128;28;20111;-65
2023/04/22 01:50:07;;;;;;;0.30;0.30;;;;;;;16.80;59.65;100924.75;5073369;28;20572;-66
2023/04/22 01:52:33;;;;;;;0.10;0.10;;;;;;;16.94;59.61;100925.09;5073019;28;20025;-67
2023/04/22 01:55:00;;;;;;;0.10;0.10;;;;;;;16.72;59.96;100919.00;5072479;28;20115;-66
2023/04/22 01:57:25;;;;;;;0.10;0.10;;;;;;;16.78;59.60;100918.78;5055123;28;20147;-67
2023/04/22 01:59:50;;;;;;;0.30;0.30;;;;;;;16.97;58.92;100927.25;5072557;28;20036;-66
2023/04/22 02:02:16;;;;;;;0.10;0.10;;;;;;;16.78;59.63;100920.66;5054726;28;20040;-66
2023/04/22 02:04:41;;;;;;;0.22;0.22;;;;;;;16.76;59.53;100925.53;5072479;28;20048;-66
2023/04/22 02:07:06;;;;;;;0.20;0.20;;;;;;;16.78;59.39;100920.66;5072460;28;20040;-67
2023/04/22 02:09:32;;;;;;;0.30;0.30;;;;;;;16.87;59.43;100922.59;5072451;28;20033;-67
2023/04/22 02:11:57;;;;;;;0.20;0.20;;;;;;;16.80;59.75;100926.63;5072039;28;20465;-66
2023/04/22 02:14:23;;;;;;;0.20;0.20;;;;;;;16.93;59.00;100923.44;5073551;28;20040;-65
2023/04/22 02:16:48;;;;;;;0.15;0.15;;;;;;;16.78;58.29;100916.06;5072441;28;20111;-66
2023/04/22 02:19:14;;;;;;;0.20;0.20;;;;;;;16.87;58.13;100919.06;5072836;28;20115;-66
2023/04/22 02:21:39;;;;;;;0.17;0.17;;;;;;;16.69;59.12;100917.63;5071935;28;20074;-67
2023/04/22 02:24:05;;;;;;;0.20;0.20;;;;;;;16.55;59.06;100914.56;5072307;28;20482;-65
2023/04/22 02:26:50;;;;;;;0.20;0.20;;;;;;;16.62;58.65;100909.72;5072216;28;20090;-66
2023/04/22 02:29:16;;;;;;;0.30;0.30;;;;;;;16.57;59.12;100908.88;5060593;28;20036;-65
2023/04/22 02:31:41;;;;;;;0.20;0.20;;;;;;;16.69;58.50;100914.91;5071936;28;20479;-67
2023/04/22 02:34:07;;;;;;;0.20;0.20;;;;;;;16.59;58.99;100906.69;5072629;28;20029;-66
2023/04/22 02:36:33;;;;;;;0.20;0.20;;;;;;;16.47;59.40;100900.66;5071525;28;20044;-66
2023/04/22 02:38:59;;;;;;;0.20;0.20;;;;;;;16.40;58.99;100909.03;5053865;28;20048;-67
2023/04/22 02:41:25;;;;;;;0.17;0.17;;;;;;;16.52;58.58;100904.25;5071995;28;20123;-67
2023/04/22 02:43:50;;;;;;;0.20;0.20;;;;;;;16.48;57.59;100910.41;5072192;28;20100;-66
2023/04/22 02:46:15;;;;;;;0.30;0.30;;;;;;;16.33;58.07;100908.41;5072488;28;20056;-66
2023/04/22 02:48:41;;;;;;;0.25;0.25;;;;;;;16.18;58.53;100905.59;5071761;28;20067;-67
2023/04/22 02:51:07;;;;;;;0.30;0.30;;;;;;;16.31;58.17;100899.72;5070971;28;20036;-66
2023/04/22 02:53:33;;;;;;;0.20;0.20;;;;;;;16.16;57.92;100890.66;5052982;28;20040;-66
2023/04/22 02:55:58;;;;;;;0.20;0.20;;;;;;;16.13;58.63;100881.19;5071628;28;20546;-67
2023/04/22 02:58:25;;;;;;;0.10;0.10;;;;;;;16.13;58.70;100881.19;5072350;28;20107;-68
2023/04/22 03:00:51;;;;;;;0.20;0.20;;;;;;;16.10;59.09;100875.44;5071873;28;20044;-65
2023/04/22 03:03:16;;;;;;;0.30;0.30;;;;;;;16.05;59.23;100884.38;5071417;28;20040;-66
2023/04/22 03:05:41;;;;;;;0.10;0.10;;;;;;;16.10;59.04;100875.44;5071282;28;20040;-67
2023/04/22 03:08:07;;;;;;;0.20;0.20;;;;;;;15.95;58.95;100881.59;5071090;28;20032;-67
2023/04/22 03:10:32;;;;;;;0.20;0.20;;;;;;;16.08;59.56;100883.03;5071697;28;20037;-66
2023/04/22 03:12:57;;;;;;;0.20;0.20;;;;;;;16.20;59.26;100870.09;5072426;28;20435;-66
2023/04/22 03:15:23;;;;;;;0.40;0.40;;;;;;;16.19;59.61;100888.28;5071205;28;20032;-66
2023/04/22 03:17:48;;;;;;;0.10;0.10;;;;;;;16.20;58.46;100886.34;5071357;28;20036;-65
2023/04/22 03:20:14;;;;;;;0.20;0.20;;;;;;;16.23;59.25;100877.72;5070496;28;20040;-67
2023/04/22 03:22:40;;;;;;;0.10;0.10;;;;;;;16.22;58.92;100879.59;5070901;28;20032;-66
2023/04/22 03:25:05;;;;;;;0.20;0.20;;;;;;;16.20;58.70;100873.63;5071299;28;20021;-65
2023/04/22 03:27:31;;;;;;;0.30;0.30;;;;;;;16.09;58.91;100876.53;5071024;28;20123;-66
2023/04/22 03:29:56;;;;;;;0.20;0.20;;;;;;;16.29;58.93;100874.78;5071237;28;20159;-67
2023/04/22 03:32:22;;;;;;;0.30;0.30;;;;;;;16.11;59.69;100868.97;5071231;28;20488;-66
2023/04/22 03:34:47;;;;;;;0.17;0.17;;;;;;;16.19;59.74;100866.59;5053600;28;20024;-65
2023/04/22 03:37:12;;;;;;;0.20;0.20;;;;;;;15.98;60.91;100867.50;5071512;28;20279;-68
2023/04/22 03:39:38;;;;;;;0.20;0.20;;;;;;;16.17;60.07;100859.78;5070868;28;20035;-65
2023/04/22 03:42:03;;;;;;;0.10;0.10;;;;;;;16.30;59.18;100860.13;5071112;28;20033;-66
2023/04/22 03:44:28;;;;;;;0.10;0.10;;;;;;;16.20;60.21;100857.34;5070843;28;20043;-65
2023/04/22 03:46:54;;;;;;;0.20;0.20;;;;;;;16.19;59.66;100854.91;5070414;28;20086;-66
2023/04/22 03:49:19;;;;;;;0.30;0.30;;;;;;;16.22;59.23;100855.19;5071195;28;20032;-67
2023/04/22 03:51:45;;;;;;;0.28;0.28;;;;;;;16.21;59.50;100845.44;5070624;28;20039;-66
2023/04/22 03:54:10;;;;;;;0.28;0.28;;;;;;;16.07;59.50;100841.56;5070196;28;20117;-67
2023/04/22 03:56:35;;;;;;;0.30;0.30;;;;;;;16.10;59.08;100837.50;5070429;28;20087;-65
2023/04/22 03:59:03;;;;;;;0.20;0.20;;;;;;;16.03;60.31;100842.34;5070052;28;20518;-66
2023/04/22 04:01:28;;;;;;;0.20;0.20;;;;;;;16.15;59.38;100842.97;5069222;28;20044;-66
2023/04/22 04:03:53;;;;;;;0.22;0.22;;;;;;;16.02;59.93;100843.44;5069966;28;20044;-64
2023/04/22 04:06:19;;;;;;;0.10;0.10;;;;;;;16.14;59.68;100833.19;5070018;28;20041;-65
2023/04/22 04:08:45;;;;;;;0.30;0.30;;;;;;;16.20;59.22;100830.25;5069553;28;20036;-66
2023/04/22 04:11:10;;;;;;;0.20;0.20;;;;;;;16.09;58.43;100831.28;5069530;28;20043;-66
2023/04/22 04:13:36;;;;;;;0.17;0.17;;;;;;;16.16;58.97;100818.28;5072057;28;20025;-66
2023/04/22 04:16:02;;;;;;;0.20;0.20;;;;;;;16.22;58.39;100819.94;5070204;28;20036;-67
2023/04/22 04:18:28;;;;;;;0.20;0.20;;;;;;;16.16;58.42;100822.88;5070070;28;20032;-66
2023/04/22 04:20:55;;;;;;;0.30;0.30;;;;;;;16.05;58.68;100815.78;5069808;28;20508;-65
2023/04/22 04:23:20;;;;;;;0.25;0.25;;;;;;;16.11;58.48;100818.28;5069908;28;20032;-66
2023/04/22 04:25:46;;;;;;;0.20;0.20;;;;;;;16.20;58.78;100819.41;5069617;28;20131;-66
2023/04/22 04:28:12;;;;;;;0.25;0.25;;;;;;;16.08;59.45;100820.69;5070609;28;20028;-65
2023/04/22 04:30:40;;;;;;;0.20;0.20;;;;;;;16.14;59.49;100822.34;5070001;28;20036;-65
2023/04/22 04:33:05;;;;;;;0.10;0.10;;;;;;;16.25;58.82;100822.16;5070125;28;20056;-65
2023/04/22 04:35:36;;;;;;;0.25;0.25;;;;;;;16.26;58.81;100826.47;5052002;28;20032;-66
2023/04/22 04:38:02;;;;;;;0.28;0.28;;;;;;;16.31;58.73;100823.00;5051724;28;20577;-67
2023/04/22 04:40:28;;;;;;;0.20;0.20;;;;;;;16.32;58.49;100827.31;5070519;28;20028;-66
2023/04/22 04:42:54;;;;;;;0.20;0.20;;;;;;;16.32;58.31;100825.44;5069445;28;20082;-67
2023/04/22 04:45:21;;;;;;;0.20;0.20;;;;;;;16.37;57.95;100824.66;5069679;28;20090;-65
2023/04/22 04:47:49;;;;;;;0.30;0.30;;;;;;;16.34;58.17;100831.41;5051965;28;20064;-66
2023/04/22 04:50:15;;;;;;;0.20;0.20;;;;;;;16.38;58.21;100821.66;5070118;28;20612;-67
2023/04/22 04:52:40;;;;;;;0.20;0.20;;;;;;;16.48;58.86;100818.19;5069512;28;20039;-66
2023/04/22 04:55:06;;;;;;;0.22;0.22;;;;;;;16.51;57.96;100821.22;5069964;28;20100;-66
2023/04/22 04:57:31;;;;;;;0.20;0.20;;;;;;;16.52;59.00;100822.03;5069750;28;20460;-68
2023/04/22 04:59:57;;;;;;;0.20;0.20;;;;;;;16.61;58.89;100817.72;5069819;28;20056;-67
2023/04/22 05:02:22;;;;;;;0.20;0.20;;;;;;;16.59;59.26;100825.31;5069617;28;20511;-67
2023/04/22 05:04:47;;;;;;;0.30;0.30;;;;;;;16.78;59.05;100826.50;5069468;28;20469;-65
2023/04/22 05:07:13;;;;;;;0.25;0.25;;;;;;;16.49;59.41;100822.59;5069932;28;20048;-67
2023/04/22 05:09:38;;;;;;;0.13;0.13;;;;;;;16.73;59.42;100828.38;5069443;28;20060;-65
2023/04/22 05:12:04;;;;;;;0.10;0.10;;;;;;;16.65;58.93;100827.78;5069654;28;20035;-65
2023/04/22 05:14:29;;;;;;;0.20;0.20;;;;;;;16.93;58.71;100828.44;5052674;28;20038;-65
2023/04/22 05:16:55;;;;;;;0.30;0.30;;;;;;;16.94;59.07;100827.34;5069614;28;20445;-68
2023/04/22 05:19:20;;;;;;;0.10;0.10;;;;;;;16.87;58.84;100830.31;5070042;28;20211;-67
2023/04/22 05:21:45;;;;;;;0.20;0.20;;;;;;;16.99;58.68;100830.06;5069488;28;20052;-66
2023/04/22 05:24:11;;;;;;;0.10;0.10;;;;;;;16.98;58.94;100834.69;5069486;28;20456;-65
2023/04/22 05:26:36;;;;;;;0.10;0.10;;;;;;;17.10;58.48;100820.88;5069271;28;20500;-65
2023/04/22 05:29:02;;;;;;;0.20;0.20;;;;;;;17.54;57.45;100832.91;5069104;28;20357;-66
2023/04/22 05:31:28;;;;;;;0.22;0.22;;;;;;;16.81;59.64;100814.25;5069779;28;20025;-66
2023/04/22 05:33:53;;;;;;;0.32;0.32;;;;;;;17.20;58.65;100815.44;5069474;28;20029;-66
2023/04/22 05:36:18;;;;;;;0.40;0.40;;;;;;;17.18;59.40;100820.31;5069610;28;20131;-67
2023/04/22 05:38:44;;;;;;;0.25;0.25;;;;;;;17.21;58.80;100820.63;5069111;28;20078;-67
2023/04/22 05:41:09;;;;;;;0.10;0.10;;;;;;;17.43;58.48;100825.81;5068452;28;20036;-66
2023/04/22 05:43:35;;;;;;;0.20;0.20;;;;;;;17.44;58.86;100825.53;5071247;28;20099;-65
2023/04/22 05:46:00;;;;;;;0.25;0.25;;;;;;;17.47;58.85;100818.75;5073102;28;20032;-65
2023/04/22 05:48:25;;;;;;;0.13;0.13;;;;;;;17.58;58.69;100819.59;5072327;28;20040;-65
2023/04/22 05:50:51;;;;;;;0.17;0.17;;;;;;;17.70;58.28;100810.09;5054377;28;20516;-66
2023/04/22 05:53:17;;;;;;;0.20;0.20;;;;;;;18.28;56.06;100824.94;5072737;28;20116;-66
2023/04/22 05:55:42;;;;;;;0.20;0.20;;;;;;;18.54;55.27;100822.97;5072965;28;20021;-65
2023/04/22 05:58:08;;;;;;;0.20;0.20;;;;;;;18.26;56.35;100827.13;5073247;28;20468;-65
2023/04/22 06:00:33;;;;;;;0.20;0.20;;;;;;;18.47;55.98;100828.75;5072559;28;20044;-66
2023/04/22 06:02:58;;;;;;;0.30;0.30;;;;;;;18.05;57.03;100825.53;5072483;28;20547;-65
2023/04/22 06:05:24;;;;;;;0.30;0.30;;;;;;;18.12;57.69;100824.16;5072535;28;20063;-67
2023/04/22 06:07:50;;;;;;;0.20;0.20;;;;;;;18.15;57.88;100817.38;5072252;28;20210;-67
2023/04/22 06:10:15;;;;;;;0.20;0.20;;;;;;;18.25;58.08;100826.31;5072987;28;20021;-65
2023/04/22 06:12:40;;;;;;;0.30;0.30;;;;;;;18.20;57.87;100825.53;5072279;28;20025;-66
2023/04/22 06:15:06;;;;;;;0.20;0.20;;;;;;;18.23;57.98;100820.34;5073484;28;20036;-66
2023/04/22 06:17:32;;;;;;;0.20;0.20;;;;;;;18.33;57.75;100816.78;5072461;28;20025;-65
2023/04/22 06:19:57;;;;;;;0.10;0.10;;;;;;;18.29;57.82;100821.97;5072488;28;20028;-65
2023/04/22 06:22:22;;;;;;;0.20;0.20;;;;;;;18.23;57.97;100823.06;5072580;28;20047;-64
2023/04/22 06:24:48;;;;;;;0.20;0.20;;;;;;;18.40;57.53;100815.38;5071921;28;20491;-66
2023/04/22 06:27:13;;;;;;;0.20;0.20;;;;;;;18.45;56.74;100805.59;5053720;28;20106;-66
2023/04/22 06:29:38;;;;;;;0.10;0.10;;;;;;;18.68;56.24;100807.69;5071970;28;20033;-66
2023/04/22 06:32:04;;;;;;;0.20;0.20;;;;;;;18.64;57.17;100803.91;5071906;28;20090;-66
2023/04/22 06:34:29;;;;;;;0.20;0.20;;;;;;;18.67;56.85;100800.63;5072595;28;20024;-67
2023/04/22 06:36:55;;;;;;;0.10;0.10;;;;;;;18.67;57.31;100806.06;5071415;28;20048;-66
2023/04/22 06:39:20;;;;;;;0.20;0.20;;;;;;;18.77;56.67;100800.59;5071751;28;20082;-64
2023/04/22 06:41:46;;;;;;;0.20;0.20;;;;;;;18.79;56.96;100801.13;5071854;28;20032;-66
2023/04/22 06:44:11;;;;;;;0.10;0.10;;;;;;;18.77;57.30;100792.41;5072044;28;20396;-66
2023/04/22 06:46:37;;;;;;;0.17;0.17;;;;;;;19.05;56.77;100788.97;5072338;28;20037;-65
2023/04/22 06:49:03;;;;;;;0.20;0.20;;;;;;;19.78;54.14;100795.25;5071836;28;20451;-66
2023/04/22 06:51:28;;;;;;;0.20;0.20;;;;;;;19.83;52.88;100801.44;5072209;28;20036;-65
2023/04/22 06:53:53;;;;;;;0.30;0.30;;;;;;;19.24;55.80;100798.13;5071562;28;20037;-65
2023/04/22 06:56:19;;;;;;;0.15;0.15;;;;;;;19.83;53.77;100801.44;5070765;28;20054;-66
2023/04/22 06:58:44;;;;;;;0.10;0.10;;;;;;;19.53;55.13;100796.28;5072494;28;20070;-66
2023/04/22 07:01:10;;;;;;;0.20;0.20;;;;;;;19.03;56.12;100794.69;5069496;28;20024;-67
2023/04/22 07:03:35;;;;;;;0.20;0.20;;;;;;;18.92;57.04;100792.31;5070964;28;20048;-65
2023/04/22 07:06:00;;;;;;;0.10;0.10;;;;;;;19.77;54.82;100786.22;5070977;28;20045;-67
2023/04/22 07:08:26;;;;;;;0.10;0.10;;;;;;;19.92;53.93;100786.09;5070950;28;20028;-67
2023/04/22 07:10:51;;;;;;;0.20;0.20;;;;;;;20.25;52.96;100800.78;5067442;28;20082;-66
2023/04/22 07:13:17;;;;;;;0.20;0.20;;;;;;;20.59;52.38;100793.28;5068747;28;20016;-66
2023/04/22 07:15:42;;;;;;;0.20;0.20;;;;;;;19.67;55.27;100799.97;5071008;28;20028;-66
2023/04/22 07:18:07;;;;;;;0.10;0.10;;;;;;;19.73;54.86;100790.66;5070929;28;20043;-67
2023/04/22 07:20:33;;;;;;;0.20;0.20;;;;;;;19.82;55.81;100791.66;5070710;28;20070;-66
2023/04/22 07:22:58;;;;;;;0.20;0.20;;;;;;;19.62;56.41;100794.56;5070889;28;20045;-66
2023/04/22 07:25:24;;;;;;;0.20;0.20;;;;;;;19.83;55.39;100790.53;5071218;28;20472;-66
2023/04/22 07:27:49;;;;;;;0.13;0.13;;;;;;;19.90;55.31;100787.50;5070696;28;20024;-66
2023/04/22 07:30:15;;;;;;;0.20;0.20;;;;;;;19.55;56.11;100780.47;5070658;28;20059;-66
2023/04/22 07:32:40;;;;;;;0.20;0.20;;;;;;;19.87;55.48;100786.13;5067465;28;20032;-65
2023/04/22 07:35:06;;;;;;;0.10;0.10;;;;;;;20.17;54.20;100793.19;5070428;28;20029;-65
2023/04/22 07:37:31;;;;;;;0.20;0.20;;;;;;;20.43;54.35;100786.38;5070811;28;20059;-67
2023/04/22 07:39:56;;;;;;;0.10;0.10;;;;;;;20.20;54.86;100773.56;5069613;28;20037;-66
2023/04/22 07:42:22;;;;;;;0.20;0.20;;;;;;;19.97;55.67;100777.84;5068202;28;20056;-66
2023/04/22 07:44:47;;;;;;;0.15;0.15;;;;;;;20.36;55.21;100779.66;5070430;28;20031;-66
2023/04/22 07:47:13;;;;;;;0.20;0.20;;;;;;;20.25;55.13;100772.66;5070334;28;20032;-66
2023/04/22 07:49:38;;;;;;;0.20;0.20;;;;;;;20.54;54.95;100768.75;5070437;28;20020;-66
2023/04/22 07:52:04;;;;;;;0.20;0.20;;;;;;;20.62;54.50;100761.84;5070049;28;20032;-65
2023/04/22 07:54:29;;;;;;;0.13;0.13;;;;;;;20.49;55.53;100766.09;5051445;28;20160;-65
2023/04/22 07:56:56;;;;;;;0.10;0.10;;;;;;;20.69;54.40;100768.59;5067161;28;20368;-67
2023/04/22 07:59:21;;;;;;;0.20;0.20;;;;;;;21.10;53.59;100771.56;5070529;28;20048;-65
2023/04/22 08:01:47;;;;;;;0.10;0.10;;;;;;;21.31;53.38;100772.88;5070084;28;20035;-66
2023/04/22 08:04:12;;;;;;;0.10;0.10;;;;;;;20.80;54.34;100767.31;5070415;28;20511;-66
2023/04/22 08:06:37;;;;;;;0.10;0.10;;;;;;;21.56;52.47;100768.91;5052559;28;20252;-66
2023/04/22 08:09:03;;;;;;;0.10;0.10;;;;;;;21.28;53.09;100769.94;5065612;28;20062;-65
2023/04/22 08:11:28;;;;;;;0.10;0.10;;;;;;;21.76;52.03;100776.75;5078014;28;20024;-64
2023/04/22 08:13:54;;;;;;;0.20;0.20;;;;;;;21.59;51.87;100773.78;5070739;28;20047;-65
2023/04/22 08:16:19;;;;;;;0.10;0.10;;;;;;;21.73;52.30;100777.38;5060059;28;20017;-66
2023/04/22 08:18:45;;;;;;;0.20;0.20;;;;;;;21.71;52.23;100757.72;5063046;28;20032;-65
2023/04/22 08:21:11;;;;;;;0.10;0.10;;;;;;;21.71;51.94;100757.72;5069985;28;20331;-66
2023/04/22 08:23:36;;;;;;;0.15;0.15;;;;;;;21.72;52.05;100753.84;5066861;28;20037;-65
2023/04/22 08:26:02;;;;;;;0.15;0.15;;;;;;;21.74;51.71;100749.69;5066658;28;20090;-65
2023/04/22 08:28:28;;;;;;;0.10;0.10;;;;;;;21.84;51.33;100754.22;5068043;28;20435;-68
2023/04/22 08:30:53;;;;;;;0.10;0.10;;;;;;;21.95;51.32;100757.56;5066735;28;20067;-65
2023/04/22 08:33:18;;;;;;;0.15;0.15;;;;;;;22.23;49.58;100749.06;5066200;28;20400;-67
2023/04/22 08:35:44;;;;;;;0.00;0.00;;;;;;;21.93;51.34;100765.28;5066611;28;20036;-65
2023/04/22 08:38:09;;;;;;;0.10;0.10;;;;;;;22.22;51.42;100758.41;5062356;28;20512;-67
2023/04/22 08:40:39;;;;;;;0.10;0.10;;;;;;;21.83;51.39;100761.63;5064989;28;20032;-66
2023/04/22 08:43:04;;;;;;;0.10;0.10;;;;;;;22.07;50.36;100755.97;5064660;28;20468;-64
2023/04/22 08:45:30;;;;;;;0.10;0.10;;;;;;;21.62;51.25;100763.03;5066706;28;20039;-65
2023/04/22 08:47:56;;;;;;;0.10;0.10;;;;;;;21.70;52.30;100770.56;5066847;28;20090;-66
2023/04/22 08:50:21;;;;;;;0.10;0.10;;;;;;;21.44;52.64;100765.84;5066635;28;20028;-66
2023/04/22 08:52:47;;;;;;;0.10;0.10;;;;;;;22.22;51.53;100749.38;5065416;28;20025;-66
2023/04/22 08:55:12;;;;;;;0.20;0.20;;;;;;;23.14;49.27;100738.84;5064886;28;20021;-66
2023/04/22 08:57:39;;;;;;;0.10;0.10;;;;;;;22.81;49.92;100731.97;5066424;28;20041;-66
2023/04/22 09:00:05;;;;;;;0.10;0.10;;;;;;;23.34;48.44;100731.00;5063265;28;20028;-65
2023/04/22 09:02:32;;;;;;;0.10;0.10;;;;;;;23.40;48.40;100717.97;5067235;28;20048;-74
2023/04/22 09:05:00;;;;;;;0.10;0.10;;;;;;;22.80;48.64;100701.00;5050483;28;20120;-65
2023/04/22 09:07:28;;;;;;;0.10;0.10;;;;;;;23.38;48.17;100701.81;5067801;28;20059;-64
2023/04/22 09:09:54;;;;;;;0.10;0.10;;;;;;;24.60;45.48;100696.47;5069687;28;20554;-63
2023/04/22 09:12:20;;;;;;;0.10;0.10;;;;;;;24.98;45.01;100694.75;5069836;28;20029;-65
2023/04/22 09:14:45;;;;;;;0.10;0.10;;;;;;;24.86;44.45;100694.59;5069333;28;20035;-64
2023/04/22 09:17:14;;;;;;;0.08;0.08;;;;;;;24.96;44.67;100692.28;5069864;28;20069;-63
2023/04/22 09:19:40;;;;;;;0.10;0.10;;;;;;;24.63;44.16;100684.84;5072902;28;20020;-64
2023/04/22 09:22:09;;;;;;;0.10;0.10;;;;;;;25.48;43.02;100681.25;5073940;28;20027;-65
2023/04/22 09:24:34;;;;;;;0.10;0.10;;;;;;;25.72;42.72;100687.00;5073129;28;20385;-64
2023/04/22 09:27:02;;;;;;;0.10;0.10;;;;;;;24.79;44.10;100691.50;5067538;28;20033;-64
2023/04/22 09:29:30;;;;;;;0.05;0.05;;;;;;;24.51;45.06;100693.69;5070031;28;20029;-65
2023/04/22 09:31:56;;;;;;;0.00;0.00;;;;;;;25.32;43.06;100691.94;5069952;28;20031;-65
2023/04/22 09:34:21;;;;;;;0.10;0.10;;;;;;;24.67;43.51;100699.56;5069668;28;20017;-64
2023/04/22 09:36:50;;;;;;;0.10;0.10;;;;;;;25.20;42.98;100691.78;5066169;28;20416;-65
2023/04/22 09:39:15;;;;;;;0.10;0.10;;;;;;;25.61;41.75;100705.03;5069476;28;20037;-63
2023/04/22 09:41:41;;;;;;;0.10;0.10;;;;;;;25.19;41.98;100702.00;5069421;28;20028;-64
2023/04/22 09:44:16;;;;;;;0.10;0.10;;;;;;;25.50;42.50;100700.97;5069944;28;20450;-64
2023/04/22 09:46:42;;;;;;;0.10;0.10;;;;;;;24.66;42.15;100693.25;5066052;28;20376;-63
2023/04/22 09:49:10;;;;;;;0.10;0.10;;;;;;;25.09;42.32;100702.34;5070293;28;20016;-64
2023/04/22 09:51:39;;;;;;;0.10;0.10;;;;;;;25.38;41.14;100700.81;5070187;28;20041;-64
2023/04/22 09:54:09;;;;;;;0.10;0.10;;;;;;;25.44;41.89;100696.78;5067973;28;20032;-65
2023/04/22 09:56:47;;;;;;;0.10;0.10;;;;;;;25.60;42.34;100698.69;5070372;28;20063;-66
2023/04/22 09:59:14;;;;;;;0.00;0.00;;;;;;;25.43;41.62;100692.44;5070801;28;20032;-64
2023/04/22 10:01:41;;;;;;;0.10;0.10;;;;;;;25.37;42.92;100680.78;5070085;28;20035;-65
2023/04/22 10:04:13;;;;;;;0.03;0.03;;;;;;;25.43;41.99;100671.25;5073029;28;20491;-63
2023/04/22 10:06:39;;;;;;;0.10;0.10;;;;;;;25.46;40.64;100676.06;5066666;28;20032;-64
2023/04/22 10:09:04;;;;;;;0.00;0.00;;;;;;;25.85;40.93;100669.44;5067616;28;20031;-64
2023/04/22 10:11:31;;;;;;;0.10;0.10;;;;;;;25.87;40.60;100665.22;5049384;28;20040;-63
2023/04/22 10:13:59;;;;;;;0.00;0.00;;;;;;;26.39;39.65;100657.50;5070185;28;20028;-66
2023/04/22 10:16:27;;;;;;;0.00;0.00;;;;;;;26.24;40.48;100657.28;5069404;28;20024;-64
2023/04/22 10:18:55;;;;;;;0.00;0.00;;;;;;;26.40;41.81;100658.28;5050711;28;20049;-63
2023/04/22 10:21:23;;;;;;;0.00;0.00;;;;;;;26.72;40.44;100654.84;5069350;28;20119;-66
2023/04/22 10:23:49;;;;;;;0.00;0.00;;;;;;;26.39;39.65;100652.00;5069046;28;20035;-65
2023/04/22 10:26:49;;;;;;;0.00;0.00;;;;;;;26.33;41.13;100649.75;5070177;28;20028;-65
2023/04/22 10:29:18;;;;;;;0.00;0.00;;;;;;;26.45;39.78;100645.16;5069465;28;20082;-65
2023/04/22 10:31:57;;;;;;;0.00;0.00;;;;;;;25.31;40.95;100646.31;5069690;28;20024;-64
2023/04/22 10:34:22;;;;;;;0.03;0.03;;;;;;;25.84;39.67;100649.38;5068926;28;20025;-65
2023/04/22 10:37:00;;;;;;;0.00;0.00;;;;;;;27.14;38.40;100648.13;5069615;28;20044;-65
2023/04/22 10:39:27;;;;;;;0.00;0.00;;;;;;;26.84;39.85;100639.16;5067469;28;20111;-65
2023/04/22 10:42:08;;;;;;;0.00;0.00;;;;;;;27.24;38.90;100641.38;5069467;28;20029;-65
2023/04/22 10:44:50;;;;;;;0.00;0.00;;;;;;;26.50;39.43;100641.38;5068251;28;20028;-66
2023/04/22 10:47:24;;;;;;;0.00;0.00;;;;;;;27.69;37.90;100633.88;5069168;28;20117;-65
2023/04/22 10:49:50;;;;;;;0.00;0.00;;;;;;;28.13;37.13;100638.50;5067160;28;20070;-65
2023/04/22 10:52:28;;;;;;;0.00;0.00;;;;;;;27.83;36.70;100630.78;5069195;28;20465;-65
2023/04/22 10:54:53;;;;;;;0.00;0.00;;;;;;;27.80;37.24;100632.28;5067431;28;20484;-66
2023/04/22 10:57:22;;;;;;;0.00;0.00;;;;;;;27.51;38.37;100630.53;5068210;28;20180;-65
2023/04/22 10:59:52;;;;;;;0.00;0.00;;;;;;;27.41;37.87;100622.69;5066926;28;20515;-64
2023/04/22 11:02:19;;;;;;;0.00;0.00;;;;;;;27.13;39.01;100624.44;5068276;28;20032;-65
2023/04/22 11:04:45;;;;;;;0.00;0.00;;;;;;;26.85;39.20;100620.66;5065845;28;20044;-66
2023/04/22 11:07:21;;;;;;;0.00;0.00;;;;;;;27.80;37.75;100629.50;5069716;28;20120;-65
2023/04/22 11:10:06;;;;;;;0.00;0.00;;;;;;;27.70;38.07;100629.97;5068865;28;20131;-64
2023/04/22 11:12:37;;;;;;;0.00;0.00;;;;;;;27.56;37.42;100635.81;5068194;28;20037;-66
2023/04/22 11:15:07;;;;;;;0.00;0.00;;;;;;;27.85;37.59;100640.34;5068427;28;20504;-66
2023/04/22 11:17:33;;;;;;;;;;;;;;;28.62;35.37;100633.69;5070735;28;20029;-65
2023/04/22 11:19:59;;;;;;;0.00;0.00;;;;;;;28.33;36.31;100632.03;5070715;28;20020;-65